Time;durP1;ratioP1;P1;durP2;ratioP2;P2;SDS_P1;SDS_P2;PMS_P1;PMS_P2;Temp;Humidity;BMP_temperature;BMP_pressure;BME280_temperature;BME280_humidity;BME280_pressure;Samples;Min_cycle;Max_cycle;Signal;HPM_P1;HPM_P2
2021/05/18 06:49:43;;;;;;;1.08;0.80;;;;;;;;;;5059589;28;20109;-51
2021/05/18 06:52:10;;;;;;;0.57;0.55;;;;;;;;;;5057917;28;20067;-56
2021/05/18 06:54:36;;;;;;;2.13;0.80;;;;;;;;;;5047185;28;20033;-55
2021/05/18 06:57:04;;;;;;;1.55;0.60;;;;;;;;;;5056607;28;20025;-56
2021/05/18 07:02:00;;;;;;;1.05;0.63;;;;;;;;;;5059179;28;20028;-55
2021/05/18 07:04:27;;;;;;;1.88;0.75;;;;;;;;;;5051312;28;20514;-56
2021/05/18 07:09:19;;;;;;;0.50;0.50;;;;;;;;;;5056544;28;20040;-50
2021/05/18 07:11:45;;;;;;;1.30;0.90;;;;;;;;;;5058166;28;20065;-55
2021/05/18 07:14:11;;;;;;;1.17;0.63;;;;;;;;;;5053960;28;20131;-49
2021/05/18 07:16:38;;;;;;;0.80;0.75;;;;;;;;;;5054616;28;20024;-52
2021/05/18 07:19:05;;;;;;;1.40;0.93;;;;;;;;;;5058248;28;20449;-49
2021/05/18 07:21:31;;;;;;;2.13;0.70;;;;;;;;;;5055806;28;20040;-52
2021/05/18 07:23:57;;;;;;;0.50;0.50;;;;;;;;;;5053783;28;20025;-49
2021/05/18 07:26:23;;;;;;;1.13;0.60;;;;;;;;;;5049909;28;20064;-51
2021/05/18 07:28:50;;;;;;;1.05;0.75;;;;;;;;;;5057318;28;20036;-51
2021/05/18 07:31:16;;;;;;;2.35;0.80;;;;;;;;;;5056568;28;20036;-52
2021/05/18 07:33:42;;;;;;;0.85;0.70;;;;;;;;;;5058278;28;20475;-52
2021/05/18 07:36:09;;;;;;;0.93;0.60;;;;;;;;;;5047302;28;20029;-52
2021/05/18 07:38:37;;;;;;;0.50;0.38;;;;;;;;;;5058089;28;20025;-52
2021/05/18 07:41:04;;;;;;;0.70;0.50;;;;;;;;;;5055818;28;20028;-53
2021/05/18 07:43:30;;;;;;;1.20;0.70;;;;;;;;;;5057254;28;20086;-51
2021/05/18 07:45:58;;;;;;;1.23;0.70;;;;;;;;;;5042872;28;20122;-54
2021/05/18 08:07:17;;;;;;;2.92;0.60;;;;;;;;;;5042492;28;20159;-49
2021/05/18 08:10:34;;;;;;;1.05;0.70;;;;;;;;;;5043086;28;20040;-50
2021/05/18 08:12:32;;;;;;;1.98;0.95;;;;;;;;;;5040828;28;20040;-47
2021/05/18 08:15:29;;;;;;;1.50;0.73;;;;;;;;;;5042804;28;20253;-49
2021/05/18 10:18:12;;;;;;;12.45;10.63;;;;;;;;;;5052720;28;20040;-51
2021/05/18 10:35:36;;;;;;;8.10;6.80;;;;;;;;;;5052587;28;20075;-54
2021/05/18 10:38:05;;;;;;;7.15;6.45;;;;;;;;;;5052215;28;20360;-50
2021/05/18 10:40:36;;;;;;;7.68;6.88;;;;;;;;;;5051934;28;20087;-52
2021/05/18 10:43:22;;;;;;;9.38;7.80;;;;;;;;;;5052659;28;20495;-52
2021/05/18 10:45:56;;;;;;;8.80;6.63;;;;;;;;;;5050595;28;20412;-50
2021/05/18 10:48:54;;;;;;;9.32;7.63;;;;;;;;;;5052789;28;20043;-51
2021/05/18 10:51:25;;;;;;;7.97;7.18;;;;;;;;;;5052360;28;20127;-52
2021/05/18 10:54:07;;;;;;;8.80;7.47;;;;;;;;;;5052933;28;20033;-53
2021/05/18 10:56:52;;;;;;;8.32;7.43;;;;;;;;;;5051060;28;20029;-51
2021/05/18 10:59:19;;;;;;;8.60;7.60;;;;;;;;;;5047487;28;20056;-54
2021/05/18 11:01:45;;;;;;;8.60;7.03;;;;;;;;;;5046223;28;20021;-52
2021/05/18 11:04:12;;;;;;;9.93;7.20;;;;;;;;;;5045798;28;20021;-55
2021/05/18 11:06:51;;;;;;;6.18;5.57;;;;;;;;;;5036449;28;20029;-53
2021/05/18 11:09:18;;;;;;;7.93;7.07;;;;;;;;;;5039556;28;20022;-54
2021/05/18 11:11:46;;;;;;;8.07;7.25;;;;;;;;;;5052928;28;20082;-55
2021/05/18 11:14:12;;;;;;;7.78;5.05;;;;;;;;;;5051042;28;20028;-55
2021/05/18 11:16:38;;;;;;;5.55;4.18;;;;;;;;;;5050915;28;20026;-55
2021/05/18 11:19:11;;;;;;;5.80;4.85;;;;;;;;;;5065818;28;20021;-53
2021/05/18 11:21:41;;;;;;;6.75;5.50;;;;;;;;;;5055611;28;20030;-56
2021/05/18 11:24:11;;;;;;;5.57;4.80;;;;;;;;;;5052568;28;20031;-50
2021/05/18 11:26:47;;;;;;;7.15;6.03;;;;;;;;;;5052443;28;20036;-50
2021/05/18 11:29:13;;;;;;;4.35;3.58;;;;;;;;;;5063453;28;20470;-52
2021/05/18 11:31:39;;;;;;;5.68;4.30;;;;;;;;;;5053194;28;20054;-55
2021/05/18 11:34:06;;;;;;;4.55;3.80;;;;;;;;;;5049537;28;20468;-56
2021/05/18 11:36:35;;;;;;;3.65;3.25;;;;;;;;;;5048749;28;20033;-56
2021/05/18 11:39:07;;;;;;;3.58;2.97;;;;;;;;;;5055875;28;20049;-53
2021/05/18 11:41:38;;;;;;;4.13;2.75;;;;;;;;;;5056312;28;20044;-55
2021/05/18 11:44:06;;;;;;;3.53;2.20;;;;;;;;;;5055276;28;20028;-57
2021/05/18 11:46:33;;;;;;;3.53;2.42;;;;;;;;;;5055625;28;20137;-55
2021/05/18 11:49:08;;;;;;;3.03;2.53;;;;;;;;;;5055638;28;20017;-52
2021/05/18 11:51:46;;;;;;;2.60;2.17;;;;;;;;;;5048289;28;20025;-53
2021/05/18 11:54:14;;;;;;;3.03;2.10;;;;;;;;;;5055551;28;20032;-55
2021/05/18 11:56:41;;;;;;;2.95;2.15;;;;;;;;;;5055548;28;20028;-50
2021/05/18 11:59:08;;;;;;;3.28;2.58;;;;;;;;;;5029531;28;20039;-50
2021/05/18 12:01:39;;;;;;;3.35;2.50;;;;;;;;;;5045012;28;20052;-50
2021/05/18 12:04:09;;;;;;;3.72;2.28;;;;;;;;;;5029253;28;20037;-49
2021/05/18 12:06:36;;;;;;;2.47;2.00;;;;;;;;;;5042611;28;20362;-52
2021/05/18 12:09:04;;;;;;;3.10;2.15;;;;;;;;;;5040251;28;20343;-49
2021/05/18 12:11:30;;;;;;;2.85;1.92;;;;;;;;;;5054380;28;20025;-48
2021/05/18 12:13:57;;;;;;;3.13;2.25;;;;;;;;;;5054037;28;20484;-50
2021/05/18 12:16:24;;;;;;;5.35;2.88;;;;;;;;;;5055060;28;20032;-50
2021/05/18 12:18:55;;;;;;;3.00;2.13;;;;;;;;;;5055236;28;20091;-50
2021/05/18 12:21:29;;;;;;;2.30;1.90;;;;;;;;;;5053922;28;20048;-51
2021/05/18 12:24:21;;;;;;;2.67;2.10;;;;;;;;;;5050612;28;20029;-48
2021/05/18 12:26:50;;;;;;;2.30;2.00;;;;;;;;;;5046352;28;20491;-49
2021/05/18 12:29:28;;;;;;;3.13;2.20;;;;;;;;;;5053701;28;20033;-51
2021/05/18 12:31:54;;;;;;;2.42;2.00;;;;;;;;;;5054595;28;20163;-47
2021/05/18 12:34:30;;;;;;;2.47;2.00;;;;;;;;;;5055280;28;20078;-47
2021/05/18 12:36:57;;;;;;;3.08;2.05;;;;;;;;;;5055055;28;20024;-48
2021/05/18 12:39:23;;;;;;;2.60;2.00;;;;;;;;;;5055175;28;20024;-47
2021/05/18 12:42:09;;;;;;;3.58;2.10;;;;;;;;;;5054580;28;20017;-50
2021/05/18 12:44:49;;;;;;;5.10;2.05;;;;;;;;;;5046611;28;20032;-52
2021/05/18 12:47:24;;;;;;;3.05;2.13;;;;;;;;;;5039463;28;20055;-51
2021/05/18 12:49:51;;;;;;;2.40;1.92;;;;;;;;;;5055015;28;20499;-53
2021/05/18 12:52:17;;;;;;;2.08;1.60;;;;;;;;;;5053645;28;20044;-51
2021/05/18 12:54:43;;;;;;;2.50;1.80;;;;;;;;;;5054592;28;20027;-49
2021/05/18 12:57:11;;;;;;;2.97;1.88;;;;;;;;;;5054387;28;20498;-51
2021/05/18 12:59:55;;;;;;;2.45;1.77;;;;;;;;;;5054794;28;20031;-50
2021/05/18 13:02:32;;;;;;;1.92;1.25;;;;;;;;;;5052618;28;20384;-50
2021/05/18 13:05:04;;;;;;;1.88;1.27;;;;;;;;;;5052789;28;20454;-49
2021/05/18 13:07:30;;;;;;;2.15;1.23;;;;;;;;;;5053860;28;20111;-49
2021/05/18 13:10:26;;;;;;;1.80;1.50;;;;;;;;;;5053848;28;20031;-49
2021/05/18 13:13:01;;;;;;;1.92;1.40;;;;;;;;;;5053246;28;20029;-48
2021/05/18 13:15:27;;;;;;;1.83;1.48;;;;;;;;;;5051829;28;20092;-50
2021/05/18 13:17:57;;;;;;;2.25;1.75;;;;;;;;;;5053998;28;20109;-51
2021/05/18 13:20:24;;;;;;;1.58;1.30;;;;;;;;;;5053759;28;20052;-51
2021/05/18 13:22:56;;;;;;;1.95;1.63;;;;;;;;;;5052719;28;20025;-50
2021/05/18 13:28:07;;;;;;;1.58;1.30;;;;;;;;;;5054030;28;20061;-48
2021/05/18 13:30:35;;;;;;;2.30;1.45;;;;;;;;;;5053811;28;20065;-47
2021/05/18 13:33:01;;;;;;;1.48;1.00;;;;;;;;;;5053162;28;20480;-49
2021/05/18 13:35:29;;;;;;;3.40;1.60;;;;;;;;;;5053767;28;20021;-50
2021/05/18 13:37:56;;;;;;;2.00;1.33;;;;;;;;;;5053520;28;20685;-48
2021/05/18 13:40:24;;;;;;;2.05;1.40;;;;;;;;;;5052377;28;20035;-48
2021/05/18 13:42:52;;;;;;;2.40;1.15;;;;;;;;;;5052970;28;20029;-50
2021/05/18 13:45:20;;;;;;;1.35;1.10;;;;;;;;;;5053269;28;20129;-48
2021/05/18 13:47:48;;;;;;;1.60;1.08;;;;;;;;;;5053692;28;20029;-50
2021/05/18 13:50:14;;;;;;;2.90;1.52;;;;;;;;;;5053287;28;20452;-48
2021/05/18 13:52:40;;;;;;;1.77;1.02;;;;;;;;;;5052836;28;20056;-50
2021/05/18 13:55:08;;;;;;;1.63;1.17;;;;;;;;;;5052448;28;20035;-50
2021/05/18 13:57:34;;;;;;;1.58;1.10;;;;;;;;;;5052929;28;20480;-50
2021/05/18 14:00:01;;;;;;;1.70;1.27;;;;;;;;;;5052769;28;20033;-52
2021/05/18 14:02:27;;;;;;;1.30;0.90;;;;;;;;;;5053179;28;20077;-52
2021/05/18 14:04:53;;;;;;;1.42;1.10;;;;;;;;;;5052113;28;20075;-49
2021/05/18 14:10:30;;;;;;;1.38;1.20;;;;;;;;;;5050228;28;20484;-48
2021/05/18 14:12:56;;;;;;;1.77;1.13;;;;;;;;;;5050591;28;20037;-51
2021/05/18 14:15:22;;;;;;;1.40;1.10;;;;;;;;;;5049293;28;20080;-51
2021/05/18 14:17:48;;;;;;;1.40;1.13;;;;;;;;;;5051074;28;20031;-48
2021/05/18 14:20:15;;;;;;;1.25;1.00;;;;;;;;;;5050443;28;20033;-49
2021/05/18 14:22:41;;;;;;;1.23;1.00;;;;;;;;;;5034134;28;20024;-52
2021/05/18 14:25:08;;;;;;;1.17;0.88;;;;;;;;;;5049747;28;20172;-50
2021/05/18 14:27:35;;;;;;;1.45;0.90;;;;;;;;;;5034365;28;20036;-51
2021/05/18 14:30:01;;;;;;;1.50;1.10;;;;;;;;;;5050671;28;20029;-51
2021/05/18 14:32:28;;;;;;;1.05;0.80;;;;;;;;;;5050570;28;20033;-52
2021/05/18 14:34:54;;;;;;;1.00;0.80;;;;;;;;;;5032894;28;20507;-49
2021/05/18 14:37:20;;;;;;;1.40;1.10;;;;;;;;;;5034421;28;20032;-51
2021/05/18 14:39:57;;;;;;;1.08;0.88;;;;;;;;;;5050175;28;20047;-50
2021/05/18 14:45:10;;;;;;;1.10;0.80;;;;;;;;;;5045304;28;20186;-50
2021/05/18 14:47:50;;;;;;;1.05;0.77;;;;;;;;;;5052147;28;20044;-49
2021/05/18 14:55:46;;;;;;;0.80;0.70;;;;;;;;;;5051868;28;20075;-51
2021/05/18 14:58:15;;;;;;;1.30;0.70;;;;;;;;;;5053167;28;20032;-50
2021/05/18 15:00:41;;;;;;;1.20;0.88;;;;;;;;;;5048546;28;20435;-50
2021/05/18 15:03:07;;;;;;;1.38;1.00;;;;;;;;;;5052628;28;20100;-50
2021/05/18 15:05:33;;;;;;;0.88;0.80;;;;;;;;;;5050913;28;20037;-49
2021/05/18 15:08:00;;;;;;;1.17;0.77;;;;;;;;;;5055453;28;20060;-51
2021/05/18 15:10:29;;;;;;;1.20;0.80;;;;;;;;;;5043021;28;20070;-49
2021/05/18 15:12:57;;;;;;;1.85;1.10;;;;;;;;;;5043181;28;20047;-49
2021/05/18 15:15:23;;;;;;;2.55;0.90;;;;;;;;;;4982935;28;83735;-50
2021/05/18 15:17:51;;;;;;;4.03;1.00;;;;;;;;;;5019438;28;20029;-48
2021/05/18 15:21:36;;;;;;;4.20;1.20;;;;;;;22.41;33.72;99265.72;4915219;27;88229;-49
2021/05/18 15:24:04;;;;;;;1.08;0.82;;;;;;;22.39;33.89;99263.22;5023670;28;20065;-48
2021/05/18 15:26:29;;;;;;;1.85;1.20;;;;;;;22.39;33.97;99263.22;5019087;28;20516;-49
2021/05/18 15:28:55;;;;;;;1.98;0.82;;;;;;;22.41;33.77;99263.06;5014289;28;20021;-51
2021/05/18 15:31:21;;;;;;;1.40;0.90;;;;;;;22.40;33.87;99259.56;5007754;28;20026;-49
2021/05/18 15:33:47;;;;;;;1.38;0.88;;;;;;;22.40;33.58;99251.56;5017153;28;20320;-49
2021/05/18 15:36:15;;;;;;;1.42;0.90;;;;;;;22.42;33.65;99262.09;5018275;28;20050;-49
2021/05/18 15:38:43;;;;;;;1.48;1.02;;;;;;;22.41;33.76;99261.25;5017573;28;20044;-51
2021/05/18 15:41:09;;;;;;;2.70;1.27;;;;;;;22.43;33.31;99247.78;5020263;28;20033;-48
2021/05/18 15:43:35;;;;;;;2.17;1.00;;;;;;;22.43;33.53;99250.44;5029916;28;20037;-48
2021/05/18 15:46:02;;;;;;;1.38;0.80;;;;;;;22.43;33.47;99247.78;5028896;28;20036;-50
2021/05/18 15:48:28;;;;;;;1.08;0.70;;;;;;;22.42;33.54;99248.75;5028606;28;20021;-50
2021/05/18 15:50:54;;;;;;;1.77;0.80;;;;;;;22.42;33.40;99246.09;5029764;28;20397;-49
2021/05/18 15:53:20;;;;;;;1.42;0.80;;;;;;;22.40;33.46;99234.72;5045035;28;20053;-47
2021/05/18 15:55:45;;;;;;;2.35;0.90;;;;;;;22.40;33.43;99226.72;5030170;28;20084;-49
2021/05/18 15:58:11;;;;;;;1.02;0.88;;;;;;;22.38;33.37;99229.53;5028587;28;20497;-48
2021/05/18 16:00:37;;;;;;;1.35;0.73;;;;;;;22.37;33.60;99238.50;5029670;28;20033;-49
2021/05/18 16:03:04;;;;;;;1.15;0.75;;;;;;;22.37;33.58;99235.00;5030131;28;20018;-50
2021/05/18 16:05:30;;;;;;;2.05;0.75;;;;;;;22.36;33.52;99233.31;5030016;28;20040;-49
2021/05/18 16:08:06;;;;;;;1.00;0.90;;;;;;;22.35;33.67;99234.31;5029796;28;20389;-49
2021/05/18 16:10:32;;;;;;;3.63;0.73;;;;;;;22.35;33.58;99236.97;5028473;28;20029;-49
2021/05/18 16:12:57;;;;;;;2.08;0.70;;;;;;;22.33;33.87;99234.44;5029707;28;20037;-48
2021/05/18 16:15:23;;;;;;;1.58;0.60;;;;;;;22.33;33.95;99237.09;5044994;28;20071;-47
2021/05/18 16:17:49;;;;;;;1.52;0.70;;;;;;;22.32;33.85;99246.91;5028555;28;20120;-49
2021/05/18 16:20:14;;;;;;;1.38;0.70;;;;;;;22.31;34.17;99245.25;5029114;28;20037;-50
2021/05/18 16:22:40;;;;;;;1.27;0.60;;;;;;;22.30;34.19;99251.56;5028139;28;20044;-49
2021/05/18 16:25:06;;;;;;;1.10;0.70;;;;;;;22.30;34.21;99264.06;5029404;28;20105;-49
2021/05/18 16:27:32;;;;;;;1.52;0.70;;;;;;;22.28;34.21;99272.16;5029355;28;20026;-48
2021/05/18 16:29:57;;;;;;;0.60;0.60;;;;;;;22.29;34.40;99284.56;5029334;28;20036;-48
2021/05/18 16:32:23;;;;;;;2.13;0.73;;;;;;;22.30;34.48;99296.06;5019347;28;20115;-50
2021/05/18 16:34:49;;;;;;;1.35;0.70;;;;;;;22.28;34.39;99298.84;5016176;28;20032;-49
2021/05/18 16:37:14;;;;;;;1.92;0.65;;;;;;;22.29;34.35;99316.56;5015977;28;20026;-48
2021/05/18 16:39:40;;;;;;;1.00;0.75;;;;;;;22.27;34.47;99314.97;5014509;28;20030;-49
2021/05/18 16:42:05;;;;;;;1.13;0.75;;;;;;;22.27;34.61;99315.81;5016063;28;20385;-49
2021/05/18 16:44:31;;;;;;;0.80;0.50;;;;;;;22.26;34.53;99311.47;5015940;28;20049;-48
2021/05/18 16:46:57;;;;;;;1.40;0.80;;;;;;;22.27;34.75;99326.47;5015944;28;20062;-48
2021/05/18 16:49:23;;;;;;;1.75;0.90;;;;;;;22.26;34.65;99323.94;5016108;28;20017;-48
2021/05/18 16:51:48;;;;;;;1.05;0.77;;;;;;;22.26;34.80;99322.13;5015869;28;20030;-49
2021/05/18 16:54:16;;;;;;;2.20;0.63;;;;;;;22.25;34.83;99341.78;5015895;28;20109;-48
2021/05/18 16:56:42;;;;;;;2.08;0.70;;;;;;;22.25;34.77;99352.44;5015793;28;20112;-50
2021/05/18 16:59:08;;;;;;;1.00;0.73;;;;;;;22.25;34.90;99347.09;5015652;28;20433;-51
2021/05/18 17:01:34;;;;;;;1.00;0.50;;;;;;;22.23;35.22;99333.06;5014338;28;20037;-49
2021/05/18 17:04:01;;;;;;;1.00;0.73;;;;;;;22.24;35.21;99345.41;5016002;28;20107;-49
2021/05/18 17:06:27;;;;;;;1.30;0.70;;;;;;;22.24;35.34;99334.75;5014364;28;20065;-49
2021/05/18 17:08:53;;;;;;;1.70;0.60;;;;;;;22.24;35.13;99326.75;5015567;28;20050;-48
2021/05/18 17:11:19;;;;;;;4.43;0.80;;;;;;;22.24;35.40;99323.25;5014759;28;20041;-45
